createdAt,value
2022-09-22T00:00:14.596Z,12.69
2022-09-22T00:05:21.500Z,14.93
2022-09-22T00:10:28.467Z,8.48
2022-09-22T00:15:35.368Z,9.78
2022-09-22T00:20:42.366Z,10.51
2022-09-22T00:25:49.274Z,8.67
2022-09-22T00:30:56.419Z,10.98
2022-09-22T00:36:03.350Z,7.63
2022-09-22T00:41:10.328Z,8.10
2022-09-22T00:46:17.313Z,8.89
2022-09-22T00:51:24.201Z,5.61
2022-09-22T00:56:31.186Z,7.31
2022-09-22T01:01:38.163Z,6.10
2022-09-22T01:06:45.077Z,6.31
2022-09-22T01:11:51.976Z,5.87
2022-09-22T01:16:58.892Z,4.19
2022-09-22T01:22:05.846Z,6.40
2022-09-22T01:27:12.907Z,5.42
2022-09-22T01:32:19.852Z,4.94
2022-09-22T01:37:27.004Z,6.46
2022-09-22T01:42:33.988Z,5.78
2022-09-22T01:47:40.941Z,7.07
2022-09-22T01:52:47.916Z,6.95
2022-09-22T01:57:55.005Z,6.59
2022-09-22T02:03:01.970Z,5.63
2022-09-22T02:08:08.997Z,6.83
2022-09-22T02:13:15.914Z,5.75
2022-09-22T02:18:22.949Z,4.32
2022-09-22T02:23:29.850Z,5.43
2022-09-22T02:28:36.934Z,8.22
2022-09-22T02:33:43.881Z,10.62
2022-09-22T02:38:50.856Z,6.32
2022-09-22T02:43:57.796Z,8.27
2022-09-22T02:49:04.812Z,7.74
2022-09-22T02:54:12.275Z,6.13
2022-09-22T02:59:19.322Z,8.60
2022-09-22T03:04:26.295Z,23.92
2022-09-22T03:09:33.264Z,7.75
2022-09-22T03:14:40.166Z,6.62
2022-09-22T03:19:47.105Z,7.96
2022-09-22T03:24:54.025Z,5.67
2022-09-22T03:30:01.049Z,4.79
2022-09-22T03:35:07.985Z,9.03
2022-09-22T03:40:15.135Z,5.59
2022-09-22T03:45:22.123Z,5.71
2022-09-22T03:50:29.252Z,6.62
2022-09-22T03:55:36.206Z,7.11
2022-09-22T04:00:43.268Z,5.72
2022-09-22T04:05:50.208Z,7.29
2022-09-22T04:10:57.324Z,5.71
2022-09-22T04:16:04.268Z,5.76
2022-09-22T04:21:11.243Z,8.15
2022-09-22T04:26:18.210Z,8.87
2022-09-22T04:31:25.210Z,9.43
2022-09-22T04:36:32.143Z,5.80
2022-09-22T04:41:39.118Z,6.87
2022-09-22T04:46:46.102Z,8.00
2022-09-22T04:51:52.961Z,8.46
2022-09-22T04:57:00.039Z,12.86
2022-09-22T05:02:06.900Z,10.87
2022-09-22T05:07:14.074Z,7.06
2022-09-22T05:12:21.010Z,6.43
2022-09-22T05:17:28.050Z,7.77
2022-09-22T05:22:39.723Z,19.98
2022-09-22T05:27:41.650Z,26.78
2022-09-22T05:32:48.553Z,27.85
2022-09-22T05:37:55.562Z,36.22
2022-09-22T05:43:02.467Z,27.19
2022-09-22T05:48:09.469Z,59.93
2022-09-22T05:53:16.385Z,37.23
2022-09-22T05:58:23.449Z,18.67
2022-09-22T06:03:30.390Z,26.39
2022-09-22T06:08:37.516Z,11.05
2022-09-22T06:13:44.427Z,26.92
2022-09-22T06:18:51.442Z,22.86
2022-09-22T06:23:58.374Z,15.73
2022-09-22T06:29:05.490Z,13.55
2022-09-22T06:34:12.415Z,11.12
2022-09-22T06:39:19.602Z,8.10
2022-09-22T06:44:26.524Z,7.31
2022-09-22T06:49:33.583Z,5.53
2022-09-22T06:54:40.477Z,6.60
2022-09-22T06:59:47.412Z,5.04
2022-09-22T07:04:54.369Z,7.36
2022-09-22T07:10:01.358Z,6.06
2022-09-22T07:15:08.269Z,7.60
2022-09-22T07:20:15.369Z,6.49
2022-09-22T07:25:22.269Z,6.25
2022-09-22T07:30:29.340Z,4.42
2022-09-22T07:35:36.334Z,8.77
2022-09-22T07:40:43.441Z,10.65
2022-09-22T07:45:50.348Z,11.36
2022-09-22T07:50:57.442Z,15.28
2022-09-22T07:56:04.364Z,19.49
2022-09-22T08:01:11.447Z,15.70
2022-09-22T08:06:18.516Z,20.36
2022-09-22T08:11:25.411Z,16.61
2022-09-22T08:16:32.525Z,15.92
2022-09-22T08:21:47.978Z,24.38
2022-09-22T08:26:48.251Z,23.53
2022-09-22T08:31:52.525Z,19.14
2022-09-22T08:37:00.121Z,21.02
2022-09-22T08:42:07.200Z,20.11
2022-09-22T08:47:14.105Z,14.94
2022-09-22T08:52:21.186Z,12.35
2022-09-22T08:57:28.129Z,17.23
2022-09-22T09:02:35.204Z,14.69
2022-09-22T09:07:42.096Z,12.63
2022-09-22T09:12:49.146Z,15.40
2022-09-22T09:17:56.073Z,12.95
2022-09-22T09:23:03.088Z,12.04
2022-09-22T09:28:10.018Z,17.79
2022-09-22T09:33:17.144Z,11.21
2022-09-22T09:38:24.134Z,11.54
2022-09-22T09:43:31.180Z,10.83
2022-09-22T09:48:38.398Z,10.66
2022-09-22T09:53:45.313Z,11.58
2022-09-22T09:58:52.632Z,5.25
2022-09-22T10:03:59.622Z,6.12
2022-09-22T10:09:08.377Z,4.41
2022-09-22T10:14:15.311Z,3.02
2022-09-22T10:19:22.515Z,2.58
2022-09-22T10:24:29.488Z,3.87
2022-09-22T10:29:36.582Z,3.68
2022-09-22T10:34:43.534Z,3.90
2022-09-22T10:39:50.476Z,4.43
2022-09-22T10:44:57.477Z,4.75
2022-09-22T10:50:04.628Z,4.69
2022-09-22T10:55:12.212Z,4.08
2022-09-22T11:00:19.123Z,5.02
2022-09-22T11:05:27.714Z,4.16
2022-09-22T11:10:35.940Z,4.58
2022-09-22T11:15:42.937Z,3.83
2022-09-22T11:20:50.090Z,4.22
2022-09-22T11:25:57.066Z,4.62
2022-09-22T11:31:04.082Z,4.50
2022-09-22T11:36:11.804Z,5.99
2022-09-22T11:41:22.709Z,5.94
2022-09-22T11:46:19.832Z,7.01
2022-09-22T11:51:30.965Z,4.84
2022-09-22T11:56:27.903Z,4.20
2022-09-22T12:01:38.931Z,3.31
2022-09-22T12:06:36.961Z,3.72
2022-09-22T12:11:47.864Z,3.88
2022-09-22T12:16:44.758Z,5.70
2022-09-22T12:21:55.977Z,3.53
2022-09-22T12:26:52.941Z,4.23
2022-09-22T12:32:04.597Z,2.96
2022-09-22T12:37:01.492Z,4.51
2022-09-22T12:42:12.842Z,3.37
2022-09-22T12:47:09.880Z,3.92
2022-09-22T12:52:21.380Z,4.02
2022-09-22T12:57:18.319Z,3.03
2022-09-22T13:02:29.326Z,3.09
2022-09-22T13:07:26.228Z,4.20
2022-09-22T13:12:39.042Z,3.38
2022-09-22T13:17:35.932Z,3.87
2022-09-22T13:22:48.845Z,5.21
2022-09-22T13:27:45.783Z,4.53
2022-09-22T13:32:54.257Z,2.84
2022-09-22T13:38:01.321Z,3.57
2022-09-22T13:43:12.562Z,2.33
2022-09-22T13:48:09.482Z,2.42
2022-09-22T13:53:20.415Z,3.77
2022-09-22T13:58:17.796Z,3.18
2022-09-22T14:03:28.468Z,4.98
2022-09-22T14:08:25.505Z,3.69
2022-09-22T14:13:36.813Z,4.10
2022-09-22T14:18:33.822Z,4.01
2022-09-22T14:23:44.974Z,6.29
2022-09-22T14:28:42.056Z,4.04
2022-09-22T14:33:53.354Z,5.33
2022-09-22T14:39:05.232Z,6.06
2022-09-22T14:43:52.898Z,5.74
2022-09-22T14:48:59.977Z,6.89
2022-09-22T14:54:12.823Z,5.09
2022-09-22T14:59:09.926Z,5.15
2022-09-22T15:04:20.997Z,6.45
2022-09-22T15:09:17.826Z,7.17
2022-09-22T15:14:33.481Z,19.87
2022-09-22T15:19:30.472Z,12.95
2022-09-22T15:24:38.475Z,6.05
2022-09-22T15:29:45.491Z,5.10
2022-09-22T15:34:57.170Z,5.57
2022-09-22T15:39:54.154Z,8.62
2022-09-22T15:45:01.303Z,7.42
2022-09-22T15:50:08.358Z,6.72
2022-09-22T15:55:15.209Z,6.44
2022-09-22T16:00:26.352Z,8.40
2022-09-22T16:05:22.938Z,6.04
2022-09-22T16:10:29.940Z,7.09
2022-09-22T16:15:36.871Z,5.05
2022-09-22T16:20:45.698Z,8.55
2022-09-22T16:25:52.705Z,11.29
2022-09-22T16:31:01.175Z,6.32
2022-09-22T16:36:08.063Z,7.65
2022-09-22T16:41:15.287Z,6.56
2022-09-22T16:46:22.246Z,6.81
2022-09-22T16:51:29.273Z,7.90
2022-09-22T16:56:36.226Z,10.65
2022-09-22T17:01:43.282Z,7.36
2022-09-22T17:06:50.244Z,9.54
2022-09-22T17:11:57.231Z,8.05
2022-09-22T17:17:04.276Z,10.20
2022-09-22T17:22:11.367Z,11.72
2022-09-22T17:27:18.324Z,10.88
2022-09-22T17:32:25.398Z,12.66
2022-09-22T17:37:32.353Z,7.36
2022-09-22T17:42:39.430Z,12.28
2022-09-22T17:47:46.379Z,8.51
2022-09-22T17:52:53.497Z,9.63
2022-09-22T17:58:00.643Z,10.83
2022-09-22T18:03:07.641Z,12.47
2022-09-22T18:08:14.687Z,12.29
2022-09-22T18:13:21.644Z,12.71
2022-09-22T18:18:28.611Z,14.16
2022-09-22T18:23:35.550Z,9.96
2022-09-22T18:28:42.584Z,10.36
2022-09-22T18:33:49.493Z,14.03
2022-09-22T18:38:56.681Z,11.79
2022-09-22T18:44:03.641Z,15.97
2022-09-22T18:49:10.724Z,13.26
2022-09-22T18:54:17.646Z,12.16
2022-09-22T18:59:24.665Z,10.75
2022-09-22T19:04:31.573Z,14.92
2022-09-22T19:09:39.094Z,15.13
2022-09-22T19:14:45.996Z,11.83
2022-09-22T19:19:53.196Z,12.08
2022-09-22T19:25:00.126Z,12.27
2022-09-22T19:30:07.226Z,13.21
2022-09-22T19:35:14.183Z,10.03
2022-09-22T19:40:21.492Z,12.42
2022-09-22T19:45:28.355Z,12.55
2022-09-22T19:50:35.372Z,12.70
2022-09-22T19:55:42.274Z,16.08
2022-09-22T20:00:49.337Z,13.94
2022-09-22T20:05:56.288Z,13.81
2022-09-22T20:11:25.142Z,13.97
2022-09-22T20:16:09.848Z,15.31
2022-09-22T20:21:17.051Z,12.01
2022-09-22T20:26:23.981Z,11.02
2022-09-22T20:31:31.070Z,13.77
2022-09-22T20:36:37.992Z,16.53
2022-09-22T20:41:45.187Z,13.77
2022-09-22T20:46:52.096Z,12.41
2022-09-22T20:51:59.212Z,12.85
2022-09-22T20:57:06.136Z,13.83
2022-09-22T21:02:13.229Z,10.50
2022-09-22T21:07:20.108Z,12.99
2022-09-22T21:12:31.150Z,14.11
2022-09-22T21:17:33.632Z,9.88
2022-09-22T21:22:40.646Z,10.80
2022-09-22T21:27:47.565Z,10.25
2022-09-22T21:32:54.670Z,11.97
2022-09-22T21:38:01.635Z,7.70
2022-09-22T21:43:08.750Z,8.83
2022-09-22T21:48:15.702Z,12.13
2022-09-22T21:53:22.694Z,8.72
2022-09-22T21:58:29.652Z,9.65
2022-09-22T22:03:36.737Z,6.99
2022-09-22T22:08:43.613Z,14.00
2022-09-22T22:13:50.674Z,12.54
2022-09-22T22:18:57.616Z,10.77
2022-09-22T22:24:04.725Z,10.05
2022-09-22T22:29:11.649Z,10.32
2022-09-22T22:34:18.748Z,12.07
2022-09-22T22:39:25.678Z,13.56
2022-09-22T22:44:32.754Z,12.81
2022-09-22T22:49:39.690Z,15.71
2022-09-22T22:54:46.776Z,11.67
2022-09-22T22:59:53.686Z,10.32
2022-09-22T23:05:00.930Z,11.06
2022-09-22T23:10:07.930Z,6.52
2022-09-22T23:15:15.221Z,11.25
2022-09-22T23:20:22.117Z,11.09
2022-09-22T23:25:29.146Z,10.68
2022-09-22T23:30:36.173Z,12.47
2022-09-22T23:35:43.220Z,14.80
2022-09-22T23:40:50.221Z,12.57
2022-09-22T23:45:57.146Z,11.61
2022-09-22T23:51:04.047Z,8.91
2022-09-22T23:56:11.179Z,10.19
